createdAt,value
2023-06-07T00:03:40.608Z,101825.56
2023-06-07T00:13:42.130Z,101832.63
2023-06-07T00:23:43.568Z,101830.34
2023-06-07T00:33:44.875Z,101832.97
2023-06-07T00:43:46.145Z,101823.25
2023-06-07T00:53:47.386Z,101820.00
2023-06-07T01:03:48.672Z,101816.44
2023-06-07T01:13:50.022Z,101816.38
2023-06-07T01:23:51.330Z,101814.00
2023-06-07T01:33:52.820Z,101801.03
2023-06-07T01:43:54.136Z,101800.06
2023-06-07T01:53:55.453Z,101796.94
2023-06-07T02:03:56.745Z,101791.47
2023-06-07T02:13:58.116Z,101788.03
2023-06-07T02:23:59.402Z,101798.53
2023-06-07T02:34:00.721Z,101788.22
2023-06-07T02:44:01.993Z,101790.00
2023-06-07T02:54:03.226Z,101799.75
2023-06-07T03:04:04.542Z,101796.44
2023-06-07T03:14:05.838Z,101805.22
2023-06-07T03:24:07.255Z,101798.88
2023-06-07T03:34:08.581Z,101811.34
2023-06-07T03:44:09.873Z,101807.09
2023-06-07T03:54:11.273Z,101811.94
2023-06-07T04:04:12.755Z,101804.69
2023-06-07T04:14:14.056Z,101817.94
2023-06-07T04:24:16.448Z,101810.88
2023-06-07T04:34:17.993Z,101803.88
2023-06-07T04:44:19.247Z,101804.31
2023-06-07T04:54:20.527Z,101821.78
2023-06-07T05:04:21.832Z,101809.38
2023-06-07T05:14:23.124Z,101817.50
2023-06-07T05:24:24.531Z,101826.16
2023-06-07T05:34:25.864Z,101828.72
2023-06-07T05:44:27.142Z,101830.41
2023-06-07T05:54:28.438Z,101841.78
2023-06-07T06:04:29.857Z,101840.28
2023-06-07T06:14:31.136Z,101847.50
2023-06-07T06:24:32.488Z,101852.69
2023-06-07T06:34:33.766Z,101858.03
2023-06-07T06:44:35.088Z,101864.06
2023-06-07T06:54:36.534Z,101871.94
2023-06-07T07:04:37.943Z,101880.88
2023-06-07T07:14:39.409Z,101894.84
2023-06-07T07:24:40.704Z,101892.72
2023-06-07T07:34:42.265Z,101901.34
2023-06-07T07:44:43.633Z,101886.53
2023-06-07T07:54:44.945Z,101899.44
2023-06-07T08:04:46.262Z,101896.88
2023-06-07T08:14:47.715Z,101894.69
2023-06-07T08:24:49.007Z,101895.94
2023-06-07T08:34:50.270Z,101893.56
2023-06-07T08:44:51.525Z,101886.13
2023-06-07T08:54:52.846Z,101887.09
2023-06-07T09:04:54.124Z,101889.94
2023-06-07T09:14:55.387Z,101893.06
2023-06-07T09:24:56.735Z,101887.66
2023-06-07T09:34:58.040Z,101892.78
2023-06-07T09:44:59.313Z,101881.63
2023-06-07T09:55:00.618Z,101882.50
2023-06-07T10:05:01.966Z,101876.28
2023-06-07T10:15:03.230Z,101885.94
2023-06-07T10:25:04.551Z,101876.28
2023-06-07T10:35:05.839Z,101875.50
2023-06-07T10:45:07.177Z,101874.72
2023-06-07T10:55:08.470Z,101874.59
2023-06-07T11:05:09.970Z,101864.03
2023-06-07T11:15:11.369Z,101870.88
2023-06-07T11:25:12.622Z,101853.53
2023-06-07T11:35:16.695Z,101850.78
2023-06-07T11:45:18.382Z,101843.78
2023-06-07T11:55:19.654Z,101833.13
2023-06-07T12:05:20.969Z,101831.34
2023-06-07T12:15:22.219Z,101835.78
2023-06-07T12:25:23.541Z,101833.06
2023-06-07T12:35:24.838Z,101828.78
2023-06-07T12:45:26.133Z,101819.81
2023-06-07T12:55:27.431Z,101808.13
2023-06-07T13:05:28.712Z,101779.22
2023-06-07T13:15:30.006Z,101766.09
2023-06-07T13:25:31.264Z,101758.34
2023-06-07T13:35:36.714Z,101754.75
2023-06-07T13:45:39.321Z,101750.34
2023-06-07T13:55:40.691Z,101745.91
2023-06-07T14:05:41.950Z,101737.00
2023-06-07T14:15:43.289Z,101705.34
2023-06-07T14:25:44.621Z,101710.59
2023-06-07T14:35:45.948Z,101696.34
2023-06-07T14:45:47.335Z,101670.66
2023-06-07T14:55:48.634Z,101672.53
2023-06-07T15:05:49.901Z,101658.22
2023-06-07T15:15:51.213Z,101665.16
2023-06-07T15:25:52.499Z,101655.50
2023-06-07T15:35:53.756Z,101645.75
2023-06-07T15:45:55.060Z,101655.47
2023-06-07T15:55:56.391Z,101637.75
2023-06-07T16:05:57.664Z,101630.81
2023-06-07T16:15:58.945Z,101619.34
2023-06-07T16:26:00.243Z,101609.63
2023-06-07T16:36:01.551Z,101607.94
2023-06-07T16:46:03.134Z,101602.59
2023-06-07T16:56:04.467Z,101600.94
2023-06-07T17:06:05.782Z,101606.16
2023-06-07T17:16:07.132Z,101597.22
2023-06-07T17:26:09.930Z,101604.59
2023-06-07T17:36:11.231Z,101598.47
2023-06-07T17:46:12.568Z,101589.59
2023-06-07T17:56:13.887Z,101602.94
2023-06-07T18:06:15.155Z,101598.38
2023-06-07T18:16:16.456Z,101601.09
2023-06-07T18:26:17.726Z,101602.78
2023-06-07T18:36:19.014Z,101608.22
2023-06-07T18:46:20.649Z,101612.56
2023-06-07T18:56:22.071Z,101611.66
2023-06-07T19:06:23.484Z,101610.72
2023-06-07T19:16:25.281Z,101616.13
2023-06-07T19:26:26.575Z,101615.13
2023-06-07T19:36:27.854Z,101613.34
2023-06-07T19:46:29.207Z,101606.38
2023-06-07T19:56:30.541Z,101622.28
2023-06-07T20:06:31.824Z,101623.59
2023-06-07T20:16:33.408Z,101637.63
2023-06-07T20:26:34.707Z,101638.63
2023-06-07T20:36:36.267Z,101647.41
2023-06-07T20:46:37.599Z,101648.56
2023-06-07T20:56:38.981Z,101664.16
2023-06-07T21:06:40.319Z,101661.59
2023-06-07T21:16:42.845Z,101666.88
2023-06-07T21:26:45.361Z,101667.03
2023-06-07T21:36:46.628Z,101670.81
2023-06-07T21:46:47.940Z,101668.25
2023-06-07T21:56:49.230Z,101677.06
2023-06-07T22:06:50.585Z,101682.34
2023-06-07T22:16:51.872Z,101677.00
2023-06-07T22:26:53.164Z,101658.91
2023-06-07T22:36:54.427Z,101666.59
2023-06-07T22:46:55.775Z,101668.91
2023-06-07T22:56:57.137Z,101670.50
2023-06-07T23:06:58.426Z,101669.88
2023-06-07T23:16:59.809Z,101660.31
2023-06-07T23:27:01.141Z,101659.31
2023-06-07T23:37:02.411Z,101654.75
2023-06-07T23:47:03.658Z,101655.03
2023-06-07T23:57:04.942Z,101656.19
